sensor_id;sensor_type;location;lat;lon;timestamp;temperature;humidity
8709;DHT22;4391;48.678;9.280;2022-09-30T00:01:26;6.20;99.90
8709;DHT22;4391;48.678;9.280;2022-09-30T00:03:54;6.20;99.90
8709;DHT22;4391;48.678;9.280;2022-09-30T00:06:21;6.20;99.90
8709;DHT22;4391;48.678;9.280;2022-09-30T00:08:50;6.10;99.90
8709;DHT22;4391;48.678;9.280;2022-09-30T00:11:20;6.20;99.90
8709;DHT22;4391;48.678;9.280;2022-09-30T00:13:48;6.10;99.90
8709;DHT22;4391;48.678;9.280;2022-09-30T00:16:17;6.00;99.90
8709;DHT22;4391;48.678;9.280;2022-09-30T00:18:45;6.00;99.90
8709;DHT22;4391;48.678;9.280;2022-09-30T00:21:14;5.90;99.90
8709;DHT22;4391;48.678;9.280;2022-09-30T00:23:42;5.80;99.90
8709;DHT22;4391;48.678;9.280;2022-09-30T00:26:12;5.90;99.90
8709;DHT22;4391;48.678;9.280;2022-09-30T00:28:40;6.00;99.90
8709;DHT22;4391;48.678;9.280;2022-09-30T00:31:11;6.10;99.90
8709;DHT22;4391;48.678;9.280;2022-09-30T00:33:38;6.20;99.90
8709;DHT22;4391;48.678;9.280;2022-09-30T00:36:05;6.30;99.90
8709;DHT22;4391;48.678;9.280;2022-09-30T00:38:32;6.30;99.90
8709;DHT22;4391;48.678;9.280;2022-09-30T00:41:00;6.40;99.90
8709;DHT22;4391;48.678;9.280;2022-09-30T00:43:40;6.40;99.90
8709;DHT22;4391;48.678;9.280;2022-09-30T00:46:15;6.40;99.90
8709;DHT22;4391;48.678;9.280;2022-09-30T00:48:42;6.40;99.90
8709;DHT22;4391;48.678;9.280;2022-09-30T00:51:10;6.50;99.90
8709;DHT22;4391;48.678;9.280;2022-09-30T00:53:43;6.50;99.90
8709;DHT22;4391;48.678;9.280;2022-09-30T00:56:15;6.60;99.90
8709;DHT22;4391;48.678;9.280;2022-09-30T00:58:47;6.60;99.90
8709;DHT22;4391;48.678;9.280;2022-09-30T01:01:18;6.70;99.90
8709;DHT22;4391;48.678;9.280;2022-09-30T01:03:49;6.70;99.90
8709;DHT22;4391;48.678;9.280;2022-09-30T01:06:20;6.60;99.90
8709;DHT22;4391;48.678;9.280;2022-09-30T01:08:47;6.80;99.90
8709;DHT22;4391;48.678;9.280;2022-09-30T01:11:14;6.80;99.90
8709;DHT22;4391;48.678;9.280;2022-09-30T01:13:43;6.80;99.90
8709;DHT22;4391;48.678;9.280;2022-09-30T01:19:26;6.90;99.90
8709;DHT22;4391;48.678;9.280;2022-09-30T01:22:25;7.00;99.90
8709;DHT22;4391;48.678;9.280;2022-09-30T01:25:25;7.00;99.90
8709;DHT22;4391;48.678;9.280;2022-09-30T01:28:18;7.10;99.90
8709;DHT22;4391;48.678;9.280;2022-09-30T01:31:07;7.10;99.90
8709;DHT22;4391;48.678;9.280;2022-09-30T01:33:40;7.10;99.90
8709;DHT22;4391;48.678;9.280;2022-09-30T01:36:22;7.10;99.90
8709;DHT22;4391;48.678;9.280;2022-09-30T01:38:57;7.00;99.90
8709;DHT22;4391;48.678;9.280;2022-09-30T01:41:35;6.90;99.90
8709;DHT22;4391;48.678;9.280;2022-09-30T01:44:13;6.90;99.90
8709;DHT22;4391;48.678;9.280;2022-09-30T01:46:48;6.90;99.90
8709;DHT22;4391;48.678;9.280;2022-09-30T01:49:22;6.90;99.90
8709;DHT22;4391;48.678;9.280;2022-09-30T01:51:55;6.90;99.90
8709;DHT22;4391;48.678;9.280;2022-09-30T01:54:29;6.90;99.90
8709;DHT22;4391;48.678;9.280;2022-09-30T01:57:02;6.90;99.90
8709;DHT22;4391;48.678;9.280;2022-09-30T01:59:33;6.90;99.90
8709;DHT22;4391;48.678;9.280;2022-09-30T02:02:06;6.90;99.90
8709;DHT22;4391;48.678;9.280;2022-09-30T02:04:37;6.80;99.90
8709;DHT22;4391;48.678;9.280;2022-09-30T02:07:09;6.80;99.90
8709;DHT22;4391;48.678;9.280;2022-09-30T02:09:41;6.80;99.90
8709;DHT22;4391;48.678;9.280;2022-09-30T02:12:16;6.80;99.90
8709;DHT22;4391;48.678;9.280;2022-09-30T02:14:47;6.70;99.90
8709;DHT22;4391;48.678;9.280;2022-09-30T02:17:19;6.60;99.90
8709;DHT22;4391;48.678;9.280;2022-09-30T02:22:19;6.60;99.90
8709;DHT22;4391;48.678;9.280;2022-09-30T02:24:52;6.50;99.90
8709;DHT22;4391;48.678;9.280;2022-09-30T02:27:24;6.50;99.90
8709;DHT22;4391;48.678;9.280;2022-09-30T02:29:56;6.40;99.90
8709;DHT22;4391;48.678;9.280;2022-09-30T02:32:29;6.30;99.90
8709;DHT22;4391;48.678;9.280;2022-09-30T02:35:00;6.20;99.90
8709;DHT22;4391;48.678;9.280;2022-09-30T02:37:31;6.20;99.90
8709;DHT22;4391;48.678;9.280;2022-09-30T02:40:02;6.10;99.90
8709;DHT22;4391;48.678;9.280;2022-09-30T02:42:32;6.00;99.90
8709;DHT22;4391;48.678;9.280;2022-09-30T02:45:01;5.90;99.90
8709;DHT22;4391;48.678;9.280;2022-09-30T02:47:35;5.90;99.90
8709;DHT22;4391;48.678;9.280;2022-09-30T02:50:11;5.90;99.90
8709;DHT22;4391;48.678;9.280;2022-09-30T02:52:46;5.90;99.90
8709;DHT22;4391;48.678;9.280;2022-09-30T02:55:20;5.90;99.90
8709;DHT22;4391;48.678;9.280;2022-09-30T02:57:56;5.90;99.90
8709;DHT22;4391;48.678;9.280;2022-09-30T03:00:25;6.00;99.90
8709;DHT22;4391;48.678;9.280;2022-09-30T03:02:57;6.10;99.90
8709;DHT22;4391;48.678;9.280;2022-09-30T03:05:26;6.00;99.90
8709;DHT22;4391;48.678;9.280;2022-09-30T03:07:53;6.10;99.90
8709;DHT22;4391;48.678;9.280;2022-09-30T03:10:20;6.10;99.90
8709;DHT22;4391;48.678;9.280;2022-09-30T03:12:58;6.20;99.90
8709;DHT22;4391;48.678;9.280;2022-09-30T03:15:40;6.20;99.90
8709;DHT22;4391;48.678;9.280;2022-09-30T03:18:32;6.20;99.90
8709;DHT22;4391;48.678;9.280;2022-09-30T03:21:07;6.10;99.90
8709;DHT22;4391;48.678;9.280;2022-09-30T03:23:49;6.20;99.90
8709;DHT22;4391;48.678;9.280;2022-09-30T03:26:29;6.20;99.90
8709;DHT22;4391;48.678;9.280;2022-09-30T03:29:12;6.20;99.90
8709;DHT22;4391;48.678;9.280;2022-09-30T03:31:49;6.30;99.90
8709;DHT22;4391;48.678;9.280;2022-09-30T03:34:23;6.20;99.90
8709;DHT22;4391;48.678;9.280;2022-09-30T03:36:57;6.30;99.90
8709;DHT22;4391;48.678;9.280;2022-09-30T03:39:34;6.30;99.90
8709;DHT22;4391;48.678;9.280;2022-09-30T03:42:08;6.20;99.90
8709;DHT22;4391;48.678;9.280;2022-09-30T03:44:40;6.20;99.90
8709;DHT22;4391;48.678;9.280;2022-09-30T03:47:10;6.20;99.90
8709;DHT22;4391;48.678;9.280;2022-09-30T03:49:44;6.10;99.90
8709;DHT22;4391;48.678;9.280;2022-09-30T03:52:12;6.10;99.90
8709;DHT22;4391;48.678;9.280;2022-09-30T03:54:48;6.10;99.90
8709;DHT22;4391;48.678;9.280;2022-09-30T03:57:15;6.00;99.90
8709;DHT22;4391;48.678;9.280;2022-09-30T03:59:42;6.00;99.90
8709;DHT22;4391;48.678;9.280;2022-09-30T04:02:10;5.90;99.90
8709;DHT22;4391;48.678;9.280;2022-09-30T04:04:39;5.90;99.90
8709;DHT22;4391;48.678;9.280;2022-09-30T04:07:07;5.80;99.90
8709;DHT22;4391;48.678;9.280;2022-09-30T04:09:35;5.80;99.90
8709;DHT22;4391;48.678;9.280;2022-09-30T04:12:02;5.70;99.90
8709;DHT22;4391;48.678;9.280;2022-09-30T04:14:29;5.70;99.90
8709;DHT22;4391;48.678;9.280;2022-09-30T04:16:56;5.70;99.90
8709;DHT22;4391;48.678;9.280;2022-09-30T04:19:23;5.60;99.90
8709;DHT22;4391;48.678;9.280;2022-09-30T04:21:54;5.50;99.90
8709;DHT22;4391;48.678;9.280;2022-09-30T04:24:22;5.40;99.90
8709;DHT22;4391;48.678;9.280;2022-09-30T04:26:49;5.40;99.90
8709;DHT22;4391;48.678;9.280;2022-09-30T04:29:16;5.30;99.90
8709;DHT22;4391;48.678;9.280;2022-09-30T04:31:43;5.30;99.90
8709;DHT22;4391;48.678;9.280;2022-09-30T04:34:10;5.20;99.90
8709;DHT22;4391;48.678;9.280;2022-09-30T04:36:37;5.10;99.90
8709;DHT22;4391;48.678;9.280;2022-09-30T04:39:05;5.10;99.90
8709;DHT22;4391;48.678;9.280;2022-09-30T04:41:32;5.10;99.90
8709;DHT22;4391;48.678;9.280;2022-09-30T04:43:59;5.10;99.90
8709;DHT22;4391;48.678;9.280;2022-09-30T04:46:31;5.10;99.90
8709;DHT22;4391;48.678;9.280;2022-09-30T04:48:58;5.10;99.90
8709;DHT22;4391;48.678;9.280;2022-09-30T04:51:25;5.20;99.90
8709;DHT22;4391;48.678;9.280;2022-09-30T04:53:55;5.20;99.90
8709;DHT22;4391;48.678;9.280;2022-09-30T04:56:23;5.20;99.90
8709;DHT22;4391;48.678;9.280;2022-09-30T04:58:51;5.30;99.90
8709;DHT22;4391;48.678;9.280;2022-09-30T05:01:18;5.30;99.90
8709;DHT22;4391;48.678;9.280;2022-09-30T05:03:45;5.30;99.90
8709;DHT22;4391;48.678;9.280;2022-09-30T05:06:13;5.40;99.90
8709;DHT22;4391;48.678;9.280;2022-09-30T05:08:40;5.30;99.90
8709;DHT22;4391;48.678;9.280;2022-09-30T05:11:12;5.40;99.90
8709;DHT22;4391;48.678;9.280;2022-09-30T05:13:41;5.40;99.90
8709;DHT22;4391;48.678;9.280;2022-09-30T05:16:08;5.40;99.90
8709;DHT22;4391;48.678;9.280;2022-09-30T05:18:35;5.40;99.90
8709;DHT22;4391;48.678;9.280;2022-09-30T05:21:03;5.40;99.90
8709;DHT22;4391;48.678;9.280;2022-09-30T05:23:31;5.50;99.90
8709;DHT22;4391;48.678;9.280;2022-09-30T05:25:58;5.50;99.90
8709;DHT22;4391;48.678;9.280;2022-09-30T05:28:25;5.50;99.90
8709;DHT22;4391;48.678;9.280;2022-09-30T05:30:58;5.60;99.90
8709;DHT22;4391;48.678;9.280;2022-09-30T05:33:25;5.70;99.90
8709;DHT22;4391;48.678;9.280;2022-09-30T05:35:54;5.70;99.90
8709;DHT22;4391;48.678;9.280;2022-09-30T05:38:21;5.80;99.90
8709;DHT22;4391;48.678;9.280;2022-09-30T05:40:48;6.00;99.90
8709;DHT22;4391;48.678;9.280;2022-09-30T05:43:14;6.10;99.90
8709;DHT22;4391;48.678;9.280;2022-09-30T05:45:41;6.10;99.90
8709;DHT22;4391;48.678;9.280;2022-09-30T05:48:09;6.20;99.90
8709;DHT22;4391;48.678;9.280;2022-09-30T05:50:36;6.20;99.90
8709;DHT22;4391;48.678;9.280;2022-09-30T05:53:04;6.30;99.90
8709;DHT22;4391;48.678;9.280;2022-09-30T05:55:30;6.30;99.90
8709;DHT22;4391;48.678;9.280;2022-09-30T05:57:58;6.40;99.90
8709;DHT22;4391;48.678;9.280;2022-09-30T06:00:24;6.50;99.90
8709;DHT22;4391;48.678;9.280;2022-09-30T06:02:51;6.50;99.90
8709;DHT22;4391;48.678;9.280;2022-09-30T06:05:19;6.60;99.90
8709;DHT22;4391;48.678;9.280;2022-09-30T06:07:46;6.60;99.90
8709;DHT22;4391;48.678;9.280;2022-09-30T06:10:14;6.70;99.90
8709;DHT22;4391;48.678;9.280;2022-09-30T06:12:43;6.70;99.90
8709;DHT22;4391;48.678;9.280;2022-09-30T06:15:10;6.80;99.90
8709;DHT22;4391;48.678;9.280;2022-09-30T06:17:36;6.70;99.90
8709;DHT22;4391;48.678;9.280;2022-09-30T06:20:04;6.70;99.90
8709;DHT22;4391;48.678;9.280;2022-09-30T06:22:35;6.70;99.90
8709;DHT22;4391;48.678;9.280;2022-09-30T06:25:03;6.70;99.90
8709;DHT22;4391;48.678;9.280;2022-09-30T06:27:31;6.80;99.90
8709;DHT22;4391;48.678;9.280;2022-09-30T06:29:58;6.90;99.90
8709;DHT22;4391;48.678;9.280;2022-09-30T06:32:26;6.90;99.90
8709;DHT22;4391;48.678;9.280;2022-09-30T06:34:52;7.00;99.90
8709;DHT22;4391;48.678;9.280;2022-09-30T06:37:20;7.10;99.90
8709;DHT22;4391;48.678;9.280;2022-09-30T06:39:49;7.20;99.90
8709;DHT22;4391;48.678;9.280;2022-09-30T06:42:16;7.20;99.90
8709;DHT22;4391;48.678;9.280;2022-09-30T06:44:44;7.10;99.90
8709;DHT22;4391;48.678;9.280;2022-09-30T06:47:11;7.00;99.90
8709;DHT22;4391;48.678;9.280;2022-09-30T06:49:39;7.10;99.90
8709;DHT22;4391;48.678;9.280;2022-09-30T06:52:08;7.10;99.90
8709;DHT22;4391;48.678;9.280;2022-09-30T06:54:37;7.30;99.90
8709;DHT22;4391;48.678;9.280;2022-09-30T06:57:05;7.30;99.90
8709;DHT22;4391;48.678;9.280;2022-09-30T06:59:32;7.40;99.90
8709;DHT22;4391;48.678;9.280;2022-09-30T07:01:59;7.50;99.90
8709;DHT22;4391;48.678;9.280;2022-09-30T07:04:26;7.60;99.90
8709;DHT22;4391;48.678;9.280;2022-09-30T07:06:53;7.70;99.90
8709;DHT22;4391;48.678;9.280;2022-09-30T07:09:19;7.80;99.90
8709;DHT22;4391;48.678;9.280;2022-09-30T07:11:46;7.90;99.90
8709;DHT22;4391;48.678;9.280;2022-09-30T07:14:15;8.00;99.90
8709;DHT22;4391;48.678;9.280;2022-09-30T07:16:42;8.20;99.90
8709;DHT22;4391;48.678;9.280;2022-09-30T07:19:10;8.20;99.90
8709;DHT22;4391;48.678;9.280;2022-09-30T07:21:37;8.40;99.90
8709;DHT22;4391;48.678;9.280;2022-09-30T07:24:04;8.50;99.90
8709;DHT22;4391;48.678;9.280;2022-09-30T07:26:30;8.70;99.90
8709;DHT22;4391;48.678;9.280;2022-09-30T07:28:57;8.80;99.90
8709;DHT22;4391;48.678;9.280;2022-09-30T07:31:26;8.80;99.90
8709;DHT22;4391;48.678;9.280;2022-09-30T07:33:53;8.90;99.90
8709;DHT22;4391;48.678;9.280;2022-09-30T07:36:22;9.00;99.90
8709;DHT22;4391;48.678;9.280;2022-09-30T07:38:52;9.20;97.50
8709;DHT22;4391;48.678;9.280;2022-09-30T07:41:24;9.40;81.20
8709;DHT22;4391;48.678;9.280;2022-09-30T07:43:54;9.50;53.30
8709;DHT22;4391;48.678;9.280;2022-09-30T07:46:23;9.80;51.20
8709;DHT22;4391;48.678;9.280;2022-09-30T07:48:54;10.00;13.10
8709;DHT22;4391;48.678;9.280;2022-09-30T07:51:24;10.20;1.00
8709;DHT22;4391;48.678;9.280;2022-09-30T07:53:54;10.40;1.00
8709;DHT22;4391;48.678;9.280;2022-09-30T07:56:22;10.40;1.00
8709;DHT22;4391;48.678;9.280;2022-09-30T07:58:53;10.50;1.00
8709;DHT22;4391;48.678;9.280;2022-09-30T08:01:20;10.60;1.00
8709;DHT22;4391;48.678;9.280;2022-09-30T08:03:47;10.80;1.00
8709;DHT22;4391;48.678;9.280;2022-09-30T08:06:19;10.90;1.00
8709;DHT22;4391;48.678;9.280;2022-09-30T08:08:46;10.90;1.00
8709;DHT22;4391;48.678;9.280;2022-09-30T08:11:13;11.00;1.00
8709;DHT22;4391;48.678;9.280;2022-09-30T08:13:40;11.10;1.00
8709;DHT22;4391;48.678;9.280;2022-09-30T08:16:07;11.20;1.00
8709;DHT22;4391;48.678;9.280;2022-09-30T08:18:34;11.30;1.00
8709;DHT22;4391;48.678;9.280;2022-09-30T08:21:02;11.30;1.00
8709;DHT22;4391;48.678;9.280;2022-09-30T08:23:31;11.40;1.00
8709;DHT22;4391;48.678;9.280;2022-09-30T08:26:02;11.50;1.00
8709;DHT22;4391;48.678;9.280;2022-09-30T08:28:30;11.50;1.00
8709;DHT22;4391;48.678;9.280;2022-09-30T08:31:03;11.50;1.00
8709;DHT22;4391;48.678;9.280;2022-09-30T08:33:30;11.40;1.00
8709;DHT22;4391;48.678;9.280;2022-09-30T08:36:01;11.60;1.00
8709;DHT22;4391;48.678;9.280;2022-09-30T08:38:28;11.70;99.90
8709;DHT22;4391;48.678;9.280;2022-09-30T08:41:03;11.90;1.00
8709;DHT22;4391;48.678;9.280;2022-09-30T08:43:35;12.10;99.90
8709;DHT22;4391;48.678;9.280;2022-09-30T08:46:10;12.10;81.20
8709;DHT22;4391;48.678;9.280;2022-09-30T08:48:48;12.10;99.90
8709;DHT22;4391;48.678;9.280;2022-09-30T08:51:25;12.10;99.90
8709;DHT22;4391;48.678;9.280;2022-09-30T08:53:55;12.00;99.90
8709;DHT22;4391;48.678;9.280;2022-09-30T08:56:26;12.10;99.90
8709;DHT22;4391;48.678;9.280;2022-09-30T08:58:57;12.10;99.90
8709;DHT22;4391;48.678;9.280;2022-09-30T09:01:29;12.10;99.90
8709;DHT22;4391;48.678;9.280;2022-09-30T09:03:59;12.30;99.90
8709;DHT22;4391;48.678;9.280;2022-09-30T09:06:31;12.40;99.90
8709;DHT22;4391;48.678;9.280;2022-09-30T09:09:15;12.60;94.60
8709;DHT22;4391;48.678;9.280;2022-09-30T09:11:56;12.70;1.00
8709;DHT22;4391;48.678;9.280;2022-09-30T09:14:38;13.00;1.00
8709;DHT22;4391;48.678;9.280;2022-09-30T09:17:19;13.20;99.90
8709;DHT22;4391;48.678;9.280;2022-09-30T09:19:58;13.60;99.90
8709;DHT22;4391;48.678;9.280;2022-09-30T09:22:27;14.10;12.40
8709;DHT22;4391;48.678;9.280;2022-09-30T09:24:56;14.60;99.90
8709;DHT22;4391;48.678;9.280;2022-09-30T09:27:30;15.20;99.90
8709;DHT22;4391;48.678;9.280;2022-09-30T09:30:05;15.30;62.50
8709;DHT22;4391;48.678;9.280;2022-09-30T09:32:33;15.10;99.90
8709;DHT22;4391;48.678;9.280;2022-09-30T09:35:05;15.30;99.90
8709;DHT22;4391;48.678;9.280;2022-09-30T09:37:40;15.90;90.80
8709;DHT22;4391;48.678;9.280;2022-09-30T09:40:33;16.60;1.00
8709;DHT22;4391;48.678;9.280;2022-09-30T09:43:14;17.00;1.00
8709;DHT22;4391;48.678;9.280;2022-09-30T09:45:50;17.50;1.00
8709;DHT22;4391;48.678;9.280;2022-09-30T09:48:21;18.00;1.00
8709;DHT22;4391;48.678;9.280;2022-09-30T09:50:56;18.20;99.90
8709;DHT22;4391;48.678;9.280;2022-09-30T09:53:44;18.20;99.90
8709;DHT22;4391;48.678;9.280;2022-09-30T09:56:15;18.20;99.90
8709;DHT22;4391;48.678;9.280;2022-09-30T09:59:08;18.40;99.90
8709;DHT22;4391;48.678;9.280;2022-09-30T10:01:38;18.50;99.90
8709;DHT22;4391;48.678;9.280;2022-09-30T10:04:11;18.80;99.90
8709;DHT22;4391;48.678;9.280;2022-09-30T10:06:45;19.30;99.90
8709;DHT22;4391;48.678;9.280;2022-09-30T10:09:28;20.00;99.90
8709;DHT22;4391;48.678;9.280;2022-09-30T10:12:16;20.80;99.90
8709;DHT22;4391;48.678;9.280;2022-09-30T10:14:51;21.50;99.90
8709;DHT22;4391;48.678;9.280;2022-09-30T10:17:21;22.00;99.90
8709;DHT22;4391;48.678;9.280;2022-09-30T10:19:52;22.70;99.90
8709;DHT22;4391;48.678;9.280;2022-09-30T10:22:24;22.70;99.90
8709;DHT22;4391;48.678;9.280;2022-09-30T10:27:53;23.10;99.90
8709;DHT22;4391;48.678;9.280;2022-09-30T10:30:47;22.90;99.90
8709;DHT22;4391;48.678;9.280;2022-09-30T10:33:20;22.90;99.90
8709;DHT22;4391;48.678;9.280;2022-09-30T10:35:51;22.70;99.90
8709;DHT22;4391;48.678;9.280;2022-09-30T10:38:19;23.10;99.90
8709;DHT22;4391;48.678;9.280;2022-09-30T10:40:48;23.40;99.90
8709;DHT22;4391;48.678;9.280;2022-09-30T10:43:22;23.20;99.90
8709;DHT22;4391;48.678;9.280;2022-09-30T10:45:52;22.90;99.90
8709;DHT22;4391;48.678;9.280;2022-09-30T10:48:22;23.00;99.90
8709;DHT22;4391;48.678;9.280;2022-09-30T10:50:51;23.80;99.90
8709;DHT22;4391;48.678;9.280;2022-09-30T10:53:22;24.70;99.90
8709;DHT22;4391;48.678;9.280;2022-09-30T10:55:50;25.10;99.90
8709;DHT22;4391;48.678;9.280;2022-09-30T10:58:25;25.50;99.90
8709;DHT22;4391;48.678;9.280;2022-09-30T11:00:58;25.90;99.90
8709;DHT22;4391;48.678;9.280;2022-09-30T11:03:33;25.70;99.90
8709;DHT22;4391;48.678;9.280;2022-09-30T11:06:03;26.30;99.90
8709;DHT22;4391;48.678;9.280;2022-09-30T11:08:38;27.30;99.90
8709;DHT22;4391;48.678;9.280;2022-09-30T11:11:11;28.20;99.90
8709;DHT22;4391;48.678;9.280;2022-09-30T11:13:43;28.80;99.90
8709;DHT22;4391;48.678;9.280;2022-09-30T11:16:24;29.60;99.90
8709;DHT22;4391;48.678;9.280;2022-09-30T11:18:58;30.10;99.90
8709;DHT22;4391;48.678;9.280;2022-09-30T11:21:31;30.60;99.90
8709;DHT22;4391;48.678;9.280;2022-09-30T11:24:02;30.60;99.90
8709;DHT22;4391;48.678;9.280;2022-09-30T11:26:39;31.00;99.90
8709;DHT22;4391;48.678;9.280;2022-09-30T11:29:29;31.80;99.90
8709;DHT22;4391;48.678;9.280;2022-09-30T11:32:10;32.30;99.90
8709;DHT22;4391;48.678;9.280;2022-09-30T11:34:49;32.10;99.90
8709;DHT22;4391;48.678;9.280;2022-09-30T11:37:28;31.90;99.90
8709;DHT22;4391;48.678;9.280;2022-09-30T11:40:18;32.60;99.90
8709;DHT22;4391;48.678;9.280;2022-09-30T11:42:52;33.40;99.90
8709;DHT22;4391;48.678;9.280;2022-09-30T11:45:28;33.80;99.90
8709;DHT22;4391;48.678;9.280;2022-09-30T11:48:22;34.20;99.90
8709;DHT22;4391;48.678;9.280;2022-09-30T11:51:01;34.40;99.90
8709;DHT22;4391;48.678;9.280;2022-09-30T11:53:39;34.20;99.90
8709;DHT22;4391;48.678;9.280;2022-09-30T11:56:21;34.90;99.90
8709;DHT22;4391;48.678;9.280;2022-09-30T11:58:53;34.60;99.90
8709;DHT22;4391;48.678;9.280;2022-09-30T12:01:28;35.30;99.90
8709;DHT22;4391;48.678;9.280;2022-09-30T12:04:03;35.10;99.90
8709;DHT22;4391;48.678;9.280;2022-09-30T12:06:34;35.50;99.90
8709;DHT22;4391;48.678;9.280;2022-09-30T12:09:06;35.20;99.90
8709;DHT22;4391;48.678;9.280;2022-09-30T12:11:40;35.40;99.90
8709;DHT22;4391;48.678;9.280;2022-09-30T12:14:14;35.50;99.90
8709;DHT22;4391;48.678;9.280;2022-09-30T12:16:45;35.50;99.90
8709;DHT22;4391;48.678;9.280;2022-09-30T12:19:16;35.50;99.90
8709;DHT22;4391;48.678;9.280;2022-09-30T12:21:49;35.60;99.90
8709;DHT22;4391;48.678;9.280;2022-09-30T12:24:23;35.00;99.90
8709;DHT22;4391;48.678;9.280;2022-09-30T12:26:51;34.90;99.90
8709;DHT22;4391;48.678;9.280;2022-09-30T12:29:22;34.90;99.90
8709;DHT22;4391;48.678;9.280;2022-09-30T12:32:33;35.50;99.90
8709;DHT22;4391;48.678;9.280;2022-09-30T12:35:15;35.30;99.90
8709;DHT22;4391;48.678;9.280;2022-09-30T12:38:00;34.70;99.90
8709;DHT22;4391;48.678;9.280;2022-09-30T12:40:46;34.00;99.90
8709;DHT22;4391;48.678;9.280;2022-09-30T12:43:49;34.70;99.90
8709;DHT22;4391;48.678;9.280;2022-09-30T12:46:31;35.00;99.90
8709;DHT22;4391;48.678;9.280;2022-09-30T12:49:10;35.70;99.90
8709;DHT22;4391;48.678;9.280;2022-09-30T12:51:43;35.30;99.90
8709;DHT22;4391;48.678;9.280;2022-09-30T12:54:12;35.40;99.90
8709;DHT22;4391;48.678;9.280;2022-09-30T12:56:41;34.90;99.90
8709;DHT22;4391;48.678;9.280;2022-09-30T12:59:09;34.80;99.90
8709;DHT22;4391;48.678;9.280;2022-09-30T13:01:37;35.50;99.90
8709;DHT22;4391;48.678;9.280;2022-09-30T13:04:15;35.50;99.90
8709;DHT22;4391;48.678;9.280;2022-09-30T13:07:12;35.10;99.90
8709;DHT22;4391;48.678;9.280;2022-09-30T13:09:59;35.20;99.90
8709;DHT22;4391;48.678;9.280;2022-09-30T13:12:28;34.90;99.90
8709;DHT22;4391;48.678;9.280;2022-09-30T13:15:26;34.70;99.90
8709;DHT22;4391;48.678;9.280;2022-09-30T13:21:20;36.10;99.90
8709;DHT22;4391;48.678;9.280;2022-09-30T13:23:50;36.50;99.90
8709;DHT22;4391;48.678;9.280;2022-09-30T13:26:36;36.20;99.90
8709;DHT22;4391;48.678;9.280;2022-09-30T13:29:27;36.30;99.90
8709;DHT22;4391;48.678;9.280;2022-09-30T13:32:06;36.00;99.90
8709;DHT22;4391;48.678;9.280;2022-09-30T13:34:59;36.20;99.90
8709;DHT22;4391;48.678;9.280;2022-09-30T13:37:36;36.30;99.90
8709;DHT22;4391;48.678;9.280;2022-09-30T13:40:16;36.90;99.90
8709;DHT22;4391;48.678;9.280;2022-09-30T13:42:50;36.80;99.90
8709;DHT22;4391;48.678;9.280;2022-09-30T13:45:24;36.80;99.90
8709;DHT22;4391;48.678;9.280;2022-09-30T13:48:01;36.80;99.90
8709;DHT22;4391;48.678;9.280;2022-09-30T13:50:37;36.50;99.90
8709;DHT22;4391;48.678;9.280;2022-09-30T13:53:14;36.70;99.90
8709;DHT22;4391;48.678;9.280;2022-09-30T13:55:45;35.60;99.90
8709;DHT22;4391;48.678;9.280;2022-09-30T13:58:47;34.30;99.90
8709;DHT22;4391;48.678;9.280;2022-09-30T14:01:37;33.70;99.90
8709;DHT22;4391;48.678;9.280;2022-09-30T14:04:33;33.90;99.90
8709;DHT22;4391;48.678;9.280;2022-09-30T14:07:07;34.10;99.90
8709;DHT22;4391;48.678;9.280;2022-09-30T14:09:48;34.20;99.90
8709;DHT22;4391;48.678;9.280;2022-09-30T14:12:41;34.20;99.90
8709;DHT22;4391;48.678;9.280;2022-09-30T14:18:36;33.10;99.90
8709;DHT22;4391;48.678;9.280;2022-09-30T14:21:28;32.70;99.90
8709;DHT22;4391;48.678;9.280;2022-09-30T14:23:58;33.30;99.90
8709;DHT22;4391;48.678;9.280;2022-09-30T14:26:52;33.30;99.90
8709;DHT22;4391;48.678;9.280;2022-09-30T14:29:32;33.90;99.90
8709;DHT22;4391;48.678;9.280;2022-09-30T14:32:09;32.20;99.90
8709;DHT22;4391;48.678;9.280;2022-09-30T14:34:37;30.10;99.90
8709;DHT22;4391;48.678;9.280;2022-09-30T14:37:04;27.80;99.90
8709;DHT22;4391;48.678;9.280;2022-09-30T14:39:32;26.60;99.90
8709;DHT22;4391;48.678;9.280;2022-09-30T14:42:00;25.20;99.90
8709;DHT22;4391;48.678;9.280;2022-09-30T14:44:32;24.90;99.90
8709;DHT22;4391;48.678;9.280;2022-09-30T14:47:02;26.40;99.90
8709;DHT22;4391;48.678;9.280;2022-09-30T14:49:31;28.40;99.90
8709;DHT22;4391;48.678;9.280;2022-09-30T14:52:01;29.70;99.90
8709;DHT22;4391;48.678;9.280;2022-09-30T14:54:30;30.90;99.90
8709;DHT22;4391;48.678;9.280;2022-09-30T14:56:58;31.00;99.90
8709;DHT22;4391;48.678;9.280;2022-09-30T14:59:29;31.20;99.90
8709;DHT22;4391;48.678;9.280;2022-09-30T15:01:58;31.30;99.90
8709;DHT22;4391;48.678;9.280;2022-09-30T15:04:28;31.70;99.90
8709;DHT22;4391;48.678;9.280;2022-09-30T15:06:57;31.80;99.90
8709;DHT22;4391;48.678;9.280;2022-09-30T15:09:28;32.10;99.90
8709;DHT22;4391;48.678;9.280;2022-09-30T15:12:05;31.70;99.90
8709;DHT22;4391;48.678;9.280;2022-09-30T15:14:45;31.10;99.90
8709;DHT22;4391;48.678;9.280;2022-09-30T15:17:17;30.10;99.90
8709;DHT22;4391;48.678;9.280;2022-09-30T15:19:44;30.00;99.90
8709;DHT22;4391;48.678;9.280;2022-09-30T15:22:12;30.20;99.90
8709;DHT22;4391;48.678;9.280;2022-09-30T15:24:40;30.10;99.90
8709;DHT22;4391;48.678;9.280;2022-09-30T15:27:14;30.30;99.90
8709;DHT22;4391;48.678;9.280;2022-09-30T15:29:54;29.80;99.90
8709;DHT22;4391;48.678;9.280;2022-09-30T15:32:22;29.20;99.90
8709;DHT22;4391;48.678;9.280;2022-09-30T15:34:50;29.20;99.90
8709;DHT22;4391;48.678;9.280;2022-09-30T15:37:22;28.80;99.90
8709;DHT22;4391;48.678;9.280;2022-09-30T15:39:50;28.80;99.90
8709;DHT22;4391;48.678;9.280;2022-09-30T15:42:36;28.50;99.90
8709;DHT22;4391;48.678;9.280;2022-09-30T15:45:26;28.20;99.90
8709;DHT22;4391;48.678;9.280;2022-09-30T15:47:56;27.70;99.90
8709;DHT22;4391;48.678;9.280;2022-09-30T15:50:35;27.40;99.90
8709;DHT22;4391;48.678;9.280;2022-09-30T15:53:03;27.00;99.90
8709;DHT22;4391;48.678;9.280;2022-09-30T15:55:36;26.70;99.90
8709;DHT22;4391;48.678;9.280;2022-09-30T15:58:31;26.50;99.90
8709;DHT22;4391;48.678;9.280;2022-09-30T16:01:19;25.80;99.90
8709;DHT22;4391;48.678;9.280;2022-09-30T16:03:51;25.10;99.90
8709;DHT22;4391;48.678;9.280;2022-09-30T16:06:23;23.50;99.90
8709;DHT22;4391;48.678;9.280;2022-09-30T16:08:54;21.90;99.90
8709;DHT22;4391;48.678;9.280;2022-09-30T16:11:29;20.60;99.90
8709;DHT22;4391;48.678;9.280;2022-09-30T16:13:58;19.50;99.90
8709;DHT22;4391;48.678;9.280;2022-09-30T16:16:29;18.70;98.00
8709;DHT22;4391;48.678;9.280;2022-09-30T16:18:58;18.10;96.40
8709;DHT22;4391;48.678;9.280;2022-09-30T16:21:40;17.50;95.50
8709;DHT22;4391;48.678;9.280;2022-09-30T16:24:44;17.00;94.80
8709;DHT22;4391;48.678;9.280;2022-09-30T16:27:26;16.50;95.00
8709;DHT22;4391;48.678;9.280;2022-09-30T16:29:56;16.00;95.00
8709;DHT22;4391;48.678;9.280;2022-09-30T16:32:26;15.60;96.10
8709;DHT22;4391;48.678;9.280;2022-09-30T16:34:53;15.30;96.70
8709;DHT22;4391;48.678;9.280;2022-09-30T16:37:20;15.00;99.00
8709;DHT22;4391;48.678;9.280;2022-09-30T16:39:48;14.80;99.90
8709;DHT22;4391;48.678;9.280;2022-09-30T16:42:15;14.50;99.90
8709;DHT22;4391;48.678;9.280;2022-09-30T16:44:42;14.30;99.90
8709;DHT22;4391;48.678;9.280;2022-09-30T16:47:13;14.00;99.90
8709;DHT22;4391;48.678;9.280;2022-09-30T16:49:44;13.80;99.90
8709;DHT22;4391;48.678;9.280;2022-09-30T16:52:11;13.60;99.90
8709;DHT22;4391;48.678;9.280;2022-09-30T16:54:39;13.40;99.90
8709;DHT22;4391;48.678;9.280;2022-09-30T16:57:07;13.20;99.90
8709;DHT22;4391;48.678;9.280;2022-09-30T16:59:35;13.00;1.00
8709;DHT22;4391;48.678;9.280;2022-09-30T17:02:03;12.80;1.00